Time;durP1;ratioP1;P1;durP2;ratioP2;P2;SDS_P1;SDS_P2;PMS_P1;PMS_P2;Temp;Humidity;BMP_temperature;BMP_pressure;BME280_temperature;BME280_humidity;BME280_pressure;Samples;Min_cycle;Max_cycle;Signal;HPM_P1;HPM_P2
2022/05/15 00:01:54;;;;;;;17.20;5.50;;;;;;;13.66;47.14;99154.38;105649;1283;99083;-68
2022/05/15 00:04:26;;;;;;;18.40;5.60;;;;;;;13.65;47.09;99157.00;105722;1283;108378;-70
2022/05/15 00:06:55;;;;;;;16.20;5.50;;;;;;;13.62;47.17;99152.25;105616;1284;99363;-70
2022/05/15 00:09:26;;;;;;;19.50;5.90;;;;;;;13.61;47.31;99154.66;105577;1284;96986;-69
2022/05/15 00:11:54;;;;;;;20.20;5.80;;;;;;;13.59;47.21;99156.40;105684;1284;113426;-69
2022/05/15 00:14:26;;;;;;;18.10;5.60;;;;;;;13.56;47.27;99157.21;105696;1283;99255;-70
2022/05/15 00:16:54;;;;;;;14.60;5.30;;;;;;;13.53;47.32;99161.55;105633;1283;108353;-67
2022/05/15 00:19:29;;;;;;;18.40;6.10;;;;;;;13.51;47.52;99162.77;105567;1284;99148;-69
2022/05/15 00:21:57;;;;;;;15.80;6.00;;;;;;;13.49;47.43;99159.91;105520;1283;96634;-68
2022/05/15 00:24:29;;;;;;;15.60;5.70;;;;;;;13.44;47.40;99162.46;105284;1284;113811;-67
2022/05/15 00:27:02;;;;;;;16.20;5.30;;;;;;;13.40;47.53;99167.38;105494;1283;99344;-66
2022/05/15 00:29:34;;;;;;;15.80;5.50;;;;;;;13.38;47.60;99166.69;105436;1284;107802;-67
2022/05/15 00:32:02;;;;;;;16.00;5.90;;;;;;;13.33;47.55;99168.13;105447;1284;99274;-67
2022/05/15 00:34:30;;;;;;;14.00;5.30;;;;;;;13.29;47.71;99169.14;105466;1284;99329;-67
2022/05/15 00:37:00;;;;;;;16.20;5.20;;;;;;;13.26;47.72;99167.28;105481;1284;113234;-67
2022/05/15 00:39:30;;;;;;;22.60;5.70;;;;;;;13.21;47.79;99169.44;105574;1284;99328;-68
2022/05/15 00:42:00;;;;;;;16.40;5.20;;;;;;;13.18;47.86;99167.21;105530;1284;108280;-69
2022/05/15 00:44:30;;;;;;;19.60;5.80;;;;;;;13.16;47.76;99168.65;105468;1284;99257;-68
2022/05/15 00:47:00;;;;;;;15.00;5.00;;;;;;;13.12;47.70;99166.11;105452;1284;99265;-68
2022/05/15 00:49:32;;;;;;;19.20;4.90;;;;;;;13.07;47.73;99164.39;105410;1284;113373;-68
2022/05/15 00:52:07;;;;;;;14.70;5.60;;;;;;;13.02;47.76;99164.92;105566;1283;99080;-70
2022/05/15 00:54:41;;;;;;;20.40;5.80;;;;;;;12.97;47.81;99163.89;105516;1284;107790;-69
2022/05/15 00:57:31;;;;;;;17.50;4.80;;;;;;;12.93;47.84;99162.85;105435;1284;99249;-68
2022/05/15 01:00:03;;;;;;;15.00;4.60;;;;;;;12.88;48.01;99165.70;105462;1284;99236;-70
2022/05/15 01:02:59;;;;;;;22.30;5.30;;;;;;;12.84;48.03;99165.71;105430;1284;112505;-67
2022/05/15 01:05:27;;;;;;;16.90;5.40;;;;;;;12.77;48.04;99162.84;105204;1285;99312;-69
2022/05/15 01:07:58;;;;;;;19.00;5.00;;;;;;;12.73;47.95;99158.77;105402;1284;107693;-68
2022/05/15 01:10:33;;;;;;;18.20;5.30;;;;;;;12.70;48.05;99160.08;105448;1284;99700;-67
2022/05/15 01:13:01;;;;;;;18.90;5.60;;;;;;;12.66;48.11;99162.11;105452;1283;99278;-65
2022/05/15 01:15:31;;;;;;;24.30;6.00;;;;;;;12.62;48.14;99161.40;105448;1284;113423;-67
2022/05/15 01:17:59;;;;;;;21.00;5.60;;;;;;;12.57;48.23;99159.83;105298;1284;99375;-69
2022/05/15 01:20:32;;;;;;;17.70;5.90;;;;;;;12.54;48.30;99161.86;105585;1284;108443;-66
2022/05/15 01:23:04;;;;;;;16.80;5.70;;;;;;;12.49;48.23;99157.23;105541;1284;99412;-67
2022/05/15 01:25:37;;;;;;;16.70;6.00;;;;;;;12.43;48.47;99158.43;105503;1284;99233;-69
2022/05/15 01:28:18;;;;;;;20.60;6.10;;;;;;;12.37;48.49;99158.33;105441;1284;113545;-66
2022/05/15 01:30:54;;;;;;;20.60;5.30;;;;;;;12.33;48.55;99159.02;105488;1284;98336;-68
2022/05/15 01:33:26;;;;;;;18.20;5.50;;;;;;;12.30;48.56;99155.89;105370;1284;107432;-70
2022/05/15 01:35:54;;;;;;;16.70;5.10;;;;;;;12.27;48.66;99157.73;105669;1284;99157;-70
2022/05/15 01:38:24;;;;;;;15.60;4.70;;;;;;;12.25;48.51;99160.17;105648;1283;99198;-71
2022/05/15 01:40:54;;;;;;;17.20;5.20;;;;;;;12.21;48.64;99157.27;105623;1283;112776;-70
2022/05/15 01:43:22;;;;;;;18.50;5.30;;;;;;;12.18;48.72;99154.14;105545;1284;96654;-70
2022/05/15 01:45:49;;;;;;;13.60;4.40;;;;;;;12.16;48.79;99156.05;105599;1282;107798;-69
2022/05/15 01:48:18;;;;;;;16.10;4.90;;;;;;;12.16;48.73;99159.30;105525;1283;99367;-69
2022/05/15 01:50:45;;;;;;;17.70;5.40;;;;;;;12.14;48.87;99164.20;105556;1284;99258;-69
2022/05/15 01:53:19;;;;;;;18.20;6.00;;;;;;;12.13;48.94;99159.71;105484;1284;113538;-70
2022/05/15 01:55:52;;;;;;;15.00;4.90;;;;;;;12.12;48.98;99164.55;105529;1284;99278;-68
2022/05/15 01:58:20;;;;;;;21.20;5.30;;;;;;;12.10;48.92;99162.77;105495;1284;108472;-67
2022/05/15 02:00:52;;;;;;;18.30;5.20;;;;;;;12.10;49.01;99159.45;105515;1284;99362;-67
2022/05/15 02:03:20;;;;;;;19.60;4.90;;;;;;;12.09;49.09;99161.06;105593;1284;99349;-67
2022/05/15 02:05:48;;;;;;;18.00;5.20;;;;;;;12.08;49.09;99165.22;105609;1283;113379;-67
2022/05/15 02:08:23;;;;;;;17.10;5.50;;;;;;;12.07;49.13;99162.13;105628;1284;99314;-67
2022/05/15 02:10:55;;;;;;;16.40;5.70;;;;;;;12.05;49.31;99157.08;105581;1284;107472;-69
2022/05/15 02:13:23;;;;;;;17.20;5.00;;;;;;;12.03;49.28;99161.33;105578;1284;96674;-68
2022/05/15 02:15:57;;;;;;;18.40;4.90;;;;;;;12.01;49.29;99159.51;105612;1284;96702;-69
2022/05/15 02:18:28;;;;;;;17.90;5.30;;;;;;;12.01;49.37;99163.48;105513;1283;112719;-68
2022/05/15 02:20:56;;;;;;;16.80;5.40;;;;;;;11.99;49.37;99166.83;105515;1284;99107;-68
2022/05/15 02:23:31;;;;;;;18.60;5.00;;;;;;;11.96;49.51;99162.02;105199;1284;109045;-67
2022/05/15 02:26:03;;;;;;;20.40;5.20;;;;;;;11.95;49.42;99164.09;105576;1283;99295;-68
2022/05/15 02:28:31;;;;;;;15.30;4.90;;;;;;;11.94;49.58;99160.77;105603;1283;99247;-68
2022/05/15 02:30:59;;;;;;;17.00;5.60;;;;;;;11.95;49.61;99166.36;105595;1283;113420;-70
2022/05/15 02:33:35;;;;;;;14.50;5.30;;;;;;;11.96;49.66;99164.69;105520;1284;99141;-69
2022/05/15 02:36:07;;;;;;;16.60;5.20;;;;;;;11.97;49.77;99167.48;105485;1284;107765;-67
2022/05/15 02:38:37;;;;;;;18.40;5.20;;;;;;;11.98;49.77;99166.30;105482;1284;98726;-68
2022/05/15 02:41:06;;;;;;;24.40;5.40;;;;;;;11.99;49.77;99163.55;105559;1284;99328;-68
2022/05/15 02:43:36;;;;;;;13.80;4.90;;;;;;;12.01;49.84;99166.26;105530;1284;111848;-69
2022/05/15 02:46:06;;;;;;;19.90;5.30;;;;;;;12.04;49.91;99167.84;105558;1283;97115;-69
2022/05/15 02:51:30;;;;;;;19.60;5.60;;;;;;;12.11;50.07;99168.53;105288;1284;99158;-69
2022/05/15 02:53:58;;;;;;;16.70;4.80;;;;;;;12.15;50.02;99169.16;105675;1283;99349;-68
2022/05/15 02:56:35;;;;;;;17.10;6.20;;;;;;;12.17;50.12;99166.48;105701;1283;113899;-68
2022/05/15 02:59:08;;;;;;;15.30;5.10;;;;;;;12.20;50.21;99166.11;105626;1282;99277;-67
2022/05/15 03:01:41;;;;;;;17.70;5.10;;;;;;;12.23;50.17;99167.64;105651;1283;107761;-69
2022/05/15 03:04:08;;;;;;;14.90;5.60;;;;;;;12.25;50.24;99164.08;105674;1283;99321;-67
2022/05/15 03:06:39;;;;;;;17.30;5.10;;;;;;;12.27;50.17;99164.61;105682;1283;96605;-67
2022/05/15 03:09:13;;;;;;;18.30;5.20;;;;;;;12.29;50.22;99164.11;105655;1283;115095;-68
2022/05/15 03:11:43;;;;;;;15.40;4.80;;;;;;;12.32;50.31;99164.92;105309;1285;96630;-67
2022/05/15 03:14:15;;;;;;;20.20;5.20;;;;;;;12.34;50.34;99164.42;105547;1284;108490;-67
2022/05/15 03:16:45;;;;;;;17.20;5.30;;;;;;;12.38;50.43;99168.08;105557;1284;99336;-67
2022/05/15 03:19:21;;;;;;;17.60;5.30;;;;;;;12.41;50.37;99167.70;105366;1284;96746;-68
2022/05/15 03:21:49;;;;;;;19.80;4.90;;;;;;;12.44;50.44;99169.59;105640;1284;113440;-69
2022/05/15 03:24:19;;;;;;;18.60;5.40;;;;;;;12.46;50.34;99168.52;105626;1284;99248;-67
2022/05/15 03:26:49;;;;;;;15.60;5.00;;;;;;;12.49;50.41;99171.43;105615;1284;109063;-67
2022/05/15 03:29:22;;;;;;;15.00;4.60;;;;;;;12.54;50.50;99175.04;105608;1284;99366;-69
2022/05/15 03:31:50;;;;;;;18.20;5.10;;;;;;;12.57;50.50;99175.52;105683;1284;96668;-68
2022/05/15 03:34:21;;;;;;;17.20;5.50;;;;;;;12.59;50.59;99177.77;105681;1283;112450;-68
2022/05/15 03:36:56;;;;;;;13.20;4.70;;;;;;;12.64;50.56;99176.02;105649;1283;99157;-67
2022/05/15 03:39:28;;;;;;;16.10;4.90;;;;;;;12.69;50.60;99179.18;105607;1282;107469;-69
2022/05/15 03:41:56;;;;;;;20.00;5.50;;;;;;;12.71;50.56;99174.52;105619;1284;99205;-67
2022/05/15 03:44:30;;;;;;;18.80;5.00;;;;;;;12.75;50.64;99175.27;102638;1283;4103109;-69
2022/05/15 03:46:58;;;;;;;19.50;5.10;;;;;;;12.79;50.73;99176.00;105690;1283;113363;-69
2022/05/15 03:49:28;;;;;;;18.60;5.10;;;;;;;12.85;50.75;99176.67;105409;1284;99233;-66
2022/05/15 03:51:58;;;;;;;16.40;5.00;;;;;;;12.89;50.77;99181.27;105660;1283;108191;-67
2022/05/15 03:54:26;;;;;;;19.00;5.70;;;;;;;12.94;50.79;99180.55;105640;1283;99244;-68
2022/05/15 03:56:54;;;;;;;18.90;5.20;;;;;;;12.98;50.87;99179.35;105626;1284;99262;-69
2022/05/15 03:59:33;;;;;;;16.50;4.50;;;;;;;13.03;50.83;99178.98;105599;1283;113404;-69
2022/05/15 04:02:06;;;;;;;16.60;5.10;;;;;;;13.09;50.90;99184.86;105634;1283;99326;-68
2022/05/15 04:04:39;;;;;;;20.10;5.20;;;;;;;13.15;50.86;99182.06;105659;1282;107753;-68
2022/05/15 04:07:16;;;;;;;19.40;5.20;;;;;;;13.22;51.02;99187.91;105717;1283;99132;-70
2022/05/15 04:09:48;;;;;;;17.30;5.00;;;;;;;13.27;50.86;99193.52;105291;1284;99250;-70
2022/05/15 04:12:20;;;;;;;17.80;5.20;;;;;;;13.33;50.97;99191.86;105644;1284;112762;-68
2022/05/15 04:14:48;;;;;;;18.00;5.80;;;;;;;13.36;50.94;99194.36;105631;1282;97953;-67
2022/05/15 04:17:20;;;;;;;16.70;5.50;;;;;;;13.41;51.01;99192.81;105630;1283;107445;-67
2022/05/15 04:19:49;;;;;;;15.10;5.00;;;;;;;13.44;51.06;99196.81;105637;1283;97731;-67
2022/05/15 04:22:21;;;;;;;15.30;5.50;;;;;;;13.50;51.03;99196.15;105632;1282;99271;-68
2022/05/15 04:24:51;;;;;;;19.80;5.60;;;;;;;13.55;51.03;99192.55;105638;1283;114064;-68
2022/05/15 04:27:18;;;;;;;18.50;5.40;;;;;;;13.60;51.02;99194.67;105701;1283;99224;-67
2022/05/15 04:29:47;;;;;;;17.60;5.80;;;;;;;13.61;51.00;99194.88;105645;1283;108369;-68
2022/05/15 04:32:16;;;;;;;23.00;5.70;;;;;;;13.63;51.03;99191.52;105635;1283;99243;-68
2022/05/15 04:34:44;;;;;;;17.70;5.90;;;;;;;13.67;50.97;99195.98;105629;1283;99187;-69
2022/05/15 04:37:15;;;;;;;21.20;6.40;;;;;;;13.71;51.24;99195.00;105617;1283;111731;-69
2022/05/15 04:39:43;;;;;;;19.50;6.30;;;;;;;13.77;51.18;99196.08;105682;1283;100002;-70
2022/05/15 04:42:14;;;;;;;19.20;6.80;;;;;;;13.80;51.27;99198.85;105606;1283;107396;-69
2022/05/15 04:44:45;;;;;;;21.10;6.90;;;;;;;13.82;51.20;99195.63;106121;1283;100046;-68
2022/05/15 04:47:22;;;;;;;16.50;7.00;;;;;;;13.86;51.23;99193.03;105708;1283;96715;-69
2022/05/15 04:49:51;;;;;;;21.90;6.70;;;;;;;13.89;51.17;99194.93;105580;1283;113266;-70
2022/05/15 04:52:27;;;;;;;17.00;6.00;;;;;;;13.90;51.05;99196.80;105629;1284;96651;-69
2022/05/15 04:54:54;;;;;;;20.80;6.60;;;;;;;13.92;51.12;99202.81;105591;1283;108447;-68
2022/05/15 04:57:22;;;;;;;18.20;6.50;;;;;;;13.95;51.25;99211.84;105585;1283;99430;-69
2022/05/15 04:59:50;;;;;;;18.30;6.10;;;;;;;14.00;51.24;99209.18;105494;1283;97831;-69
2022/05/15 05:02:18;;;;;;;15.80;6.30;;;;;;;14.04;51.18;99208.98;105410;1284;113466;-70
2022/05/15 05:04:48;;;;;;;17.70;5.40;;;;;;;14.09;51.30;99207.64;105497;1283;99684;-68
2022/05/15 05:07:16;;;;;;;17.30;6.50;;;;;;;14.13;51.24;99207.43;105495;1283;107631;-70
2022/05/15 05:09:47;;;;;;;18.40;6.30;;;;;;;14.17;51.23;99208.58;105460;1283;99282;-69
2022/05/15 05:12:17;;;;;;;16.20;6.50;;;;;;;14.24;51.22;99209.07;105320;1284;99418;-67
2022/05/15 05:14:46;;;;;;;18.70;5.60;;;;;;;14.33;51.23;99208.14;105520;1283;113427;-67
2022/05/15 05:17:16;;;;;;;16.90;6.10;;;;;;;14.42;51.31;99219.80;105537;1283;99300;-68
2022/05/15 05:19:44;;;;;;;19.80;5.90;;;;;;;14.52;51.26;99228.05;105508;1283;108484;-67
2022/05/15 05:22:13;;;;;;;18.30;5.90;;;;;;;14.61;51.28;99231.64;105525;1283;99262;-66
2022/05/15 05:24:40;;;;;;;17.50;6.10;;;;;;;14.66;51.24;99228.52;105532;1283;97785;-68
2022/05/15 05:27:09;;;;;;;21.30;7.10;;;;;;;14.67;51.13;99230.15;105517;1283;113290;-66
2022/05/15 05:29:37;;;;;;;18.20;6.40;;;;;;;14.66;51.17;99232.27;105570;1283;99294;-66
2022/05/15 05:32:10;;;;;;;20.20;7.70;;;;;;;14.67;51.25;99227.31;105481;1283;108067;-68
2022/05/15 05:34:38;;;;;;;20.70;7.20;;;;;;;14.70;51.27;99233.16;105368;1284;99242;-69
2022/05/15 05:37:08;;;;;;;19.80;6.90;;;;;;;14.74;51.20;99232.69;105486;1283;99246;-68
2022/05/15 05:39:36;;;;;;;17.80;7.00;;;;;;;14.75;51.30;99233.24;105491;1283;113334;-68
2022/05/15 05:42:06;;;;;;;22.20;7.80;;;;;;;14.81;51.25;99243.63;105538;1283;97701;-67
2022/05/15 05:44:33;;;;;;;21.80;6.80;;;;;;;14.84;51.23;99240.36;105490;1283;108357;-66
2022/05/15 05:47:07;;;;;;;22.90;7.70;;;;;;;14.86;51.22;99242.71;105451;1283;97849;-66
2022/05/15 05:49:35;;;;;;;24.40;7.00;;;;;;;14.91;51.26;99241.48;105496;1283;99353;-68
2022/05/15 05:52:07;;;;;;;20.80;6.90;;;;;;;14.95;51.29;99239.53;105449;1282;113407;-65
2022/05/15 05:54:35;;;;;;;19.10;7.00;;;;;;;15.00;51.33;99242.45;105471;1283;99256;-68
2022/05/15 05:57:07;;;;;;;17.50;7.00;;;;;;;15.08;51.34;99242.69;105388;1283;108293;-67
2022/05/15 05:59:35;;;;;;;19.00;7.10;;;;;;;15.15;51.35;99242.44;105291;1284;97925;-66
2022/05/15 06:02:06;;;;;;;21.40;7.70;;;;;;;15.20;51.30;99245.41;105457;1283;99242;-66
2022/05/15 06:04:41;;;;;;;19.30;6.40;;;;;;;15.24;51.34;99243.24;105575;1283;112470;-67
2022/05/15 06:07:16;;;;;;;19.20;7.10;;;;;;;15.27;51.28;99251.39;105588;1283;99214;-68
2022/05/15 06:09:48;;;;;;;19.90;6.70;;;;;;;15.30;51.27;99252.55;105508;1283;106762;-69
2022/05/15 06:12:21;;;;;;;19.60;6.50;;;;;;;15.32;51.31;99249.64;105443;1283;99340;-69
2022/05/15 06:14:56;;;;;;;22.10;7.00;;;;;;;15.40;51.46;99251.12;105387;1283;99326;-68
2022/05/15 06:17:28;;;;;;;20.30;6.50;;;;;;;15.46;51.25;99248.63;105381;1283;113531;-67
2022/05/15 06:19:57;;;;;;;19.40;6.90;;;;;;;15.46;51.16;99252.38;105386;1283;97701;-68
2022/05/15 06:22:25;;;;;;;19.80;7.30;;;;;;;15.48;51.25;99255.02;105398;1283;108356;-69
2022/05/15 06:24:54;;;;;;;20.10;6.50;;;;;;;15.56;51.31;99251.50;105508;1283;99302;-70
2022/05/15 06:27:24;;;;;;;16.70;6.40;;;;;;;15.61;51.26;99249.26;105531;1283;99222;-68
2022/05/15 06:29:57;;;;;;;23.40;7.10;;;;;;;15.69;51.28;99254.27;105219;1284;113265;-67
2022/05/15 06:32:26;;;;;;;21.00;7.10;;;;;;;15.78;51.28;99257.95;105615;1283;96692;-68
2022/05/15 06:34:58;;;;;;;17.10;6.70;;;;;;;15.87;51.11;99262.34;105355;1284;108433;-67
2022/05/15 06:37:28;;;;;;;21.30;6.50;;;;;;;15.90;51.18;99259.89;105576;1283;99265;-68
2022/05/15 06:39:58;;;;;;;16.50;6.20;;;;;;;15.94;51.25;99255.94;105475;1283;99264;-66
2022/05/15 06:42:28;;;;;;;18.40;6.70;;;;;;;15.99;51.15;99256.02;105352;1284;112390;-67
2022/05/15 06:44:58;;;;;;;20.60;6.50;;;;;;;16.08;51.13;99257.77;105427;1283;98403;-68
2022/05/15 06:47:27;;;;;;;20.50;7.50;;;;;;;16.20;51.04;99259.78;105532;1282;107677;-69
2022/05/15 06:49:56;;;;;;;17.30;6.10;;;;;;;16.30;51.09;99262.08;105554;1283;99258;-67
2022/05/15 06:52:28;;;;;;;20.20;7.40;;;;;;;16.35;50.92;99262.55;105404;1283;96623;-67
2022/05/15 06:54:57;;;;;;;21.60;7.10;;;;;;;16.31;50.97;99267.18;105535;1284;111292;-66
2022/05/15 06:57:29;;;;;;;19.00;7.00;;;;;;;16.31;50.97;99262.92;105393;1283;97724;-68
2022/05/15 07:00:11;;;;;;;20.60;6.50;;;;;;;16.55;51.04;99259.56;105405;1283;107775;-68
2022/05/15 07:02:44;;;;;;;21.90;6.70;;;;;;;17.66;50.05;99260.56;105405;1283;99243;-70
2022/05/15 07:05:28;;;;;;;19.40;6.90;;;;;;;17.69;50.90;99259.98;105430;1282;96676;-70
2022/05/15 07:07:56;;;;;;;25.30;8.00;;;;;;;18.44;50.21;99256.23;105421;1283;112684;-67
2022/05/15 07:10:25;;;;;;;18.30;6.60;;;;;;;20.03;49.58;99255.33;105466;1283;99235;-67
2022/05/15 07:12:55;;;;;;;23.20;6.90;;;;;;;20.75;50.16;99260.27;105348;1283;108717;-68
2022/05/15 07:15:26;;;;;;;19.90;6.90;;;;;;;20.58;50.85;99257.19;105583;1283;99344;-68
2022/05/15 07:17:54;;;;;;;18.20;6.60;;;;;;;20.78;50.52;99258.15;105603;1283;99249;-68
2022/05/15 07:20:26;;;;;;;19.30;5.60;;;;;;;22.37;49.35;99250.02;105489;1283;113273;-68
2022/05/15 07:22:53;;;;;;;17.80;6.30;;;;;;;23.90;48.55;99249.80;105431;1284;99196;-68
2022/05/15 07:25:28;;;;;;;18.00;5.70;;;;;;;25.37;48.27;99250.85;105399;1283;108746;-67
2022/05/15 07:27:57;;;;;;;16.70;6.00;;;;;;;26.60;47.73;99246.35;105372;1284;99197;-69
2022/05/15 07:30:25;;;;;;;17.40;6.20;;;;;;;27.70;47.29;99243.84;105611;1283;99339;-68
2022/05/15 07:32:55;;;;;;;17.80;7.00;;;;;;;28.69;47.69;99248.00;105577;1283;112959;-69
2022/05/15 07:35:28;;;;;;;15.40;6.00;;;;;;;29.63;47.14;99247.45;105268;1285;97624;-68
2022/05/15 07:37:56;;;;;;;16.10;5.30;;;;;;;30.57;46.85;99251.81;105523;1283;106893;-69
2022/05/15 07:40:29;;;;;;;18.80;5.00;;;;;;;30.33;47.04;99254.36;105607;1284;96736;-68
2022/05/15 07:42:56;;;;;;;16.60;4.90;;;;;;;29.29;46.54;99260.67;105535;1283;99251;-68
2022/05/15 07:45:28;;;;;;;17.30;5.40;;;;;;;29.87;45.48;99259.25;105546;1283;113387;-67
2022/05/15 07:47:56;;;;;;;14.10;4.90;;;;;;;30.49;45.45;99262.17;105616;1283;99570;-68
2022/05/15 07:50:24;;;;;;;17.70;5.10;;;;;;;31.11;44.46;99262.26;105585;1283;108334;-67
2022/05/15 07:52:52;;;;;;;15.80;5.20;;;;;;;31.40;44.79;99255.31;105514;1284;99183;-69
2022/05/15 07:55:26;;;;;;;15.90;4.80;;;;;;;32.01;44.16;99254.48;105525;1283;96573;-68
2022/05/15 07:57:58;;;;;;;21.60;5.20;;;;;;;32.52;43.86;99258.08;105606;1283;113323;-68
2022/05/15 08:00:26;;;;;;;15.90;4.80;;;;;;;32.75;43.12;99257.43;105656;1282;99253;-70
2022/05/15 08:03:07;;;;;;;14.40;5.00;;;;;;;32.67;42.58;99260.33;105546;1283;108263;-68
2022/05/15 08:08:29;;;;;;;13.50;4.60;;;;;;;33.09;41.46;99257.13;105567;1283;99219;-70
2022/05/15 08:10:57;;;;;;;16.30;5.00;;;;;;;32.75;40.92;99256.88;105603;1283;112710;-69
2022/05/15 08:13:32;;;;;;;16.50;4.90;;;;;;;32.68;40.71;99263.10;105394;1283;99823;-68
2022/05/15 08:16:00;;;;;;;16.60;4.60;;;;;;;32.72;40.67;99263.00;105431;1282;108515;-67
2022/05/15 08:24:09;;;;;;;15.70;4.70;;;;;;;32.95;38.98;99266.04;105515;1283;113399;-69
2022/05/15 08:26:39;;;;;;;13.80;4.50;;;;;;;32.81;38.93;99264.34;105612;1283;99065;-68
2022/05/15 08:29:07;;;;;;;15.90;4.80;;;;;;;32.49;38.37;99260.67;105512;1283;107190;-68
2022/05/15 08:31:39;;;;;;;14.10;4.00;;;;;;;32.57;38.20;99254.58;105321;1283;99409;-67
2022/05/15 08:34:12;;;;;;;14.60;4.50;;;;;;;32.80;37.92;99258.45;105481;1283;99227;-67
2022/05/15 08:36:41;;;;;;;14.70;4.30;;;;;;;32.80;37.73;99256.79;105473;1282;112746;-67
2022/05/15 08:39:15;;;;;;;13.20;4.50;;;;;;;32.33;37.50;99252.17;105500;1283;98052;-68
2022/05/15 08:41:51;;;;;;;14.00;4.80;;;;;;;32.48;37.05;99256.63;105409;1283;108155;-69
2022/05/15 08:44:29;;;;;;;18.10;5.30;;;;;;;31.96;35.77;99254.27;105473;1282;99252;-70
2022/05/15 08:47:22;;;;;;;14.10;5.00;;;;;;;31.24;35.79;99255.93;105216;1282;99367;-67
2022/05/15 08:50:00;;;;;;;14.30;4.50;;;;;;;31.01;35.76;99255.16;105469;1283;113411;-68
2022/05/15 08:52:45;;;;;;;14.20;4.40;;;;;;;30.56;35.69;99250.14;105352;1283;99712;-69
2022/05/15 08:55:31;;;;;;;16.70;5.00;;;;;;;29.94;35.69;99250.97;105364;1283;107535;-69
2022/05/15 08:58:05;;;;;;;17.10;5.20;;;;;;;29.05;35.32;99259.67;105555;1283;96752;-69
2022/05/15 09:00:44;;;;;;;17.00;4.50;;;;;;;28.18;35.13;99256.50;105541;1283;99328;-68
2022/05/15 09:03:28;;;;;;;15.40;4.20;;;;;;;27.26;34.56;99255.57;105297;1283;113773;-68
2022/05/15 09:06:28;;;;;;;19.60;5.60;;;;;;;26.15;34.22;99260.16;105521;1283;99258;-68
2022/05/15 09:08:58;;;;;;;13.80;4.60;;;;;;;25.07;34.46;99263.95;105262;1285;108404;-69
2022/05/15 09:11:57;;;;;;;18.40;4.80;;;;;;;24.48;34.32;99263.27;105573;1283;99760;-69
2022/05/15 09:14:55;;;;;;;15.60;4.90;;;;;;;23.81;34.30;99266.88;105501;1283;99233;-69
2022/05/15 09:18:04;;;;;;;16.70;4.30;;;;;;;23.36;34.00;99270.17;105564;1283;111830;-70
2022/05/15 09:20:59;;;;;;;11.90;3.80;;;;;;;23.48;33.99;99264.48;105624;1283;99186;-69
2022/05/15 09:23:26;;;;;;;16.80;4.40;;;;;;;22.99;33.85;99266.50;105381;1283;107675;-70
2022/05/15 09:26:05;;;;;;;15.50;3.80;;;;;;;22.62;33.90;99272.52;105618;1283;99264;-71
2022/05/15 09:28:49;;;;;;;17.30;4.50;;;;;;;22.35;33.84;99272.11;105434;1283;99400;-70
2022/05/15 09:31:29;;;;;;;18.20;4.30;;;;;;;22.07;34.08;99279.02;105459;1283;113285;-68
2022/05/15 09:34:07;;;;;;;14.80;4.00;;;;;;;21.82;34.07;99279.73;105582;1283;97229;-69
2022/05/15 09:36:35;;;;;;;16.80;4.30;;;;;;;21.54;34.01;99285.87;105572;1283;107818;-69
2022/05/15 09:39:39;;;;;;;12.90;3.70;;;;;;;21.95;33.93;99280.21;105431;1283;99940;-70
2022/05/15 09:45:27;;;;;;;11.30;4.20;;;;;;;23.26;34.24;99269.91;105472;1284;112752;-70
2022/05/15 09:47:58;;;;;;;13.80;3.70;;;;;;;23.90;34.17;99270.86;105597;1283;99204;-71
2022/05/15 09:50:40;;;;;;;15.50;3.90;;;;;;;24.38;34.09;99272.09;105502;1283;109418;-76
2022/05/15 09:53:26;;;;;;;15.20;4.10;;;;;;;24.46;33.84;99270.03;105536;1283;98071;-72
2022/05/15 09:56:21;;;;;;;12.40;3.90;;;;;;;24.39;33.97;99276.04;105479;1283;97769;-69
2022/05/15 09:58:56;;;;;;;13.00;4.00;;;;;;;24.20;34.17;99269.15;105581;1282;112682;-69
2022/05/15 10:01:48;;;;;;;16.70;4.80;;;;;;;23.83;34.13;99261.92;105631;1283;99795;-70
2022/05/15 10:04:30;;;;;;;16.60;5.10;;;;;;;23.31;34.28;99264.95;105636;1282;107812;-69
2022/05/15 10:07:05;;;;;;;25.00;7.50;;;;;;;23.03;34.55;99262.96;105406;1283;99373;-69
2022/05/15 10:09:41;;;;;;;19.10;5.20;;;;;;;22.91;34.72;99267.05;105335;1283;100685;-69
2022/05/15 10:12:27;;;;;;;19.50;4.60;;;;;;;22.71;34.45;99260.27;105173;1284;112719;-69
2022/05/15 10:14:59;;;;;;;16.10;3.50;;;;;;;22.40;34.44;99258.39;105453;1283;99260;-72
2022/05/15 10:17:28;;;;;;;14.80;4.10;;;;;;;22.00;34.41;99267.48;105493;1283;107784;-70
2022/05/15 10:20:04;;;;;;;13.60;3.80;;;;;;;21.50;34.25;99269.02;105504;1283;99238;-69
2022/05/15 10:22:39;;;;;;;17.10;3.30;;;;;;;21.19;34.45;99267.95;105492;1283;99214;-66
2022/05/15 10:25:35;;;;;;;13.30;3.20;;;;;;;20.93;34.56;99261.38;105539;1283;113430;-70
2022/05/15 10:28:17;;;;;;;15.20;3.90;;;;;;;20.71;34.54;99263.29;105632;1282;99174;-70
2022/05/15 10:31:10;;;;;;;12.00;3.10;;;;;;;20.42;34.43;99265.90;105516;1283;107874;-70
2022/05/15 10:33:44;;;;;;;15.70;3.60;;;;;;;20.17;34.54;99267.61;105522;1283;99214;-70
2022/05/15 10:36:56;;;;;;;10.30;3.30;;;;;;;20.00;34.61;99262.55;105705;1282;100056;-68
2022/05/15 10:39:36;;;;;;;11.00;2.90;;;;;;;19.89;34.74;99251.13;105425;1282;113615;-70
2022/05/15 10:42:28;;;;;;;15.40;3.50;;;;;;;19.94;34.88;99261.60;105609;1283;99237;-69
2022/05/15 10:45:10;;;;;;;12.10;3.50;;;;;;;19.90;34.90;99264.70;105502;1283;109324;-68
2022/05/15 10:47:50;;;;;;;10.30;3.30;;;;;;;19.86;34.95;99262.84;105487;1283;99359;-68
2022/05/15 10:50:24;;;;;;;9.70;2.90;;;;;;;19.86;34.89;99264.45;105610;1283;99243;-69
2022/05/15 10:53:02;;;;;;;10.50;3.20;;;;;;;19.78;34.85;99260.57;105382;1283;112786;-69
2022/05/15 10:58:46;;;;;;;13.30;3.00;;;;;;;19.56;34.92;99258.30;105535;1283;108523;-68
2022/05/15 11:01:39;;;;;;;13.20;2.90;;;;;;;19.48;34.92;99263.85;105591;1283;96692;-70
2022/05/15 11:04:31;;;;;;;8.50;2.70;;;;;;;19.35;35.13;99260.34;105562;1283;99273;-68
2022/05/15 11:07:25;;;;;;;16.50;3.10;;;;;;;19.30;35.05;99256.73;105671;1283;113443;-69
2022/05/15 11:10:06;;;;;;;10.70;2.70;;;;;;;19.33;35.32;99250.97;105738;1281;99114;-68
2022/05/15 11:13:03;;;;;;;11.90;2.80;;;;;;;19.46;35.40;99257.34;105563;1283;108501;-68
2022/05/15 11:16:03;;;;;;;11.10;2.90;;;;;;;19.52;35.19;99254.26;105502;1283;99243;-70
2022/05/15 11:18:45;;;;;;;10.70;2.90;;;;;;;19.46;35.22;99248.14;105782;1283;96689;-68
2022/05/15 11:21:31;;;;;;;11.40;2.90;;;;;;;19.50;35.33;99245.81;105611;1283;113865;-69
2022/05/15 11:24:17;;;;;;;8.80;2.60;;;;;;;19.51;35.31;99247.82;105756;1282;99201;-69
2022/05/15 11:26:55;;;;;;;8.60;3.20;;;;;;;19.49;35.11;99243.52;105608;1283;106434;-69
2022/05/15 11:29:27;;;;;;;11.70;2.70;;;;;;;19.40;35.25;99241.78;105659;1283;99368;-69
2022/05/15 11:31:57;;;;;;;12.20;2.50;;;;;;;19.38;35.30;99243.45;105559;1283;97884;-70
2022/05/15 11:35:00;;;;;;;12.20;3.00;;;;;;;19.37;35.34;99234.73;105572;1283;114356;-71
2022/05/15 11:37:37;;;;;;;9.20;2.60;;;;;;;19.38;35.26;99231.58;105578;1283;99333;-69
2022/05/15 11:40:31;;;;;;;11.90;2.80;;;;;;;19.40;35.28;99230.52;105536;1283;108388;-68
2022/05/15 11:43:20;;;;;;;8.90;2.50;;;;;;;19.41;35.34;99223.33;105725;1282;99345;-70
2022/05/15 11:45:51;;;;;;;8.80;2.50;;;;;;;19.48;35.38;99230.02;105467;1283;99909;-69
2022/05/15 11:48:31;;;;;;;8.80;2.30;;;;;;;19.45;35.25;99230.10;105567;1283;112754;-69
2022/05/15 11:51:06;;;;;;;5.70;2.30;;;;;;;19.39;35.18;99226.46;105685;1283;99313;-72
2022/05/15 11:53:49;;;;;;;5.10;2.00;;;;;;;19.36;35.21;99221.07;105583;1284;107840;-70
2022/05/15 11:56:46;;;;;;;7.40;2.30;;;;;;;19.33;35.22;99214.13;105550;1283;99392;-68
2022/05/15 11:59:28;;;;;;;8.10;2.00;;;;;;;19.33;35.31;99221.11;105621;1283;99272;-67
2022/05/15 12:02:03;;;;;;;10.20;2.60;;;;;;;19.35;35.30;99220.77;105702;1282;113473;-70
2022/05/15 12:04:33;;;;;;;9.60;2.60;;;;;;;19.39;35.21;99219.68;105522;1283;99250;-70